Terminal Aerodrome Forecast
Issued by NWS Nashville, TN

Home | Current Version | Previous Version | Text Only | Print | Product List | Glossary On
Versions: 1 2 3 4 5 6 7 8 9 10 11 12 13 14 15 16 17 18 19 20 21
963
FTUS44 KOHX 011526 AAA
TAFBNA
TAF AMD
KBNA 011526Z 0115/0212 21006KT P6SM BKN025 OVC050
     FM011800 21007KT P6SM SCT025 BKN035
     FM012100 22007KT P6SM VCTS SCT035CB BKN050
      TEMPO 0122/0201 5SM -TSRA OVC035CB
     FM020800 22004KT 5SM BR OVC020=

USA.gov is the U.S. government's official web portal to all federal, state and local government web resources and services.